Time;durP1;ratioP1;P1;durP2;ratioP2;P2;SDS_P1;SDS_P2;PMS_P1;PMS_P2;Temp;Humidity;BMP_temperature;BMP_pressure;BME280_temperature;BME280_humidity;BME280_pressure;Samples;Min_cycle;Max_cycle;Signal;HPM_P1;HPM_P2
2022/10/14 00:00:39;;;;;;;39.08;17.77;;;14.70;88.70;;;;;;5097102;28;20039;-67
2022/10/14 00:03:04;;;;;;;34.65;17.92;;;14.60;88.60;;;;;;5114490;28;20036;-67
2022/10/14 00:05:30;;;;;;;36.00;16.58;;;14.60;88.70;;;;;;5097227;28;20375;-67
2022/10/14 00:07:56;;;;;;;36.53;17.13;;;14.60;89.00;;;;;;5114986;28;20024;-67
2022/10/14 00:10:21;;;;;;;33.20;16.52;;;14.60;89.20;;;;;;5096930;28;20036;-67
2022/10/14 00:12:49;;;;;;;33.33;15.82;;;14.60;89.20;;;;;;5114686;28;20035;-67
2022/10/14 00:15:15;;;;;;;31.45;16.00;;;14.60;89.30;;;;;;5114714;28;20021;-67
2022/10/14 00:17:40;;;;;;;31.30;16.67;;;14.60;89.70;;;;;;5114638;28;20024;-67
2022/10/14 00:20:06;;;;;;;31.75;15.88;;;14.60;89.70;;;;;;5096743;28;20032;-67
2022/10/14 00:22:32;;;;;;;32.38;16.13;;;14.60;89.70;;;;;;5114676;28;20030;-67
2022/10/14 00:24:57;;;;;;;34.90;16.30;;;14.60;89.80;;;;;;5114503;28;20032;-67
2022/10/14 00:27:23;;;;;;;30.17;15.30;;;14.60;90.00;;;;;;5114465;28;20091;-67
2022/10/14 00:29:49;;;;;;;34.92;16.73;;;14.60;90.00;;;;;;5096556;28;20027;-67
2022/10/14 00:32:14;;;;;;;33.00;15.00;;;14.60;90.10;;;;;;5114357;28;20040;-67
2022/10/14 00:34:40;;;;;;;31.08;15.60;;;14.60;90.10;;;;;;5096507;28;20028;-67
2022/10/14 00:37:06;;;;;;;33.65;15.70;;;14.60;90.00;;;;;;5096340;28;20027;-67
2022/10/14 00:39:31;;;;;;;36.22;16.23;;;14.70;90.10;;;;;;5096338;28;20053;-67
2022/10/14 00:41:57;;;;;;;31.77;14.73;;;14.60;90.00;;;;;;5114225;28;20076;-68
2022/10/14 00:44:23;;;;;;;37.03;16.25;;;14.70;90.40;;;;;;5114298;28;20017;-67
2022/10/14 00:46:51;;;;;;;35.22;15.85;;;14.60;90.00;;;;;;5096175;28;20558;-67
2022/10/14 00:49:25;;;;;;;34.53;14.68;;;14.70;90.10;;;;;;5096520;28;20364;-67
2022/10/14 00:51:55;;;;;;;32.75;15.68;;;14.70;90.10;;;;;;5114122;28;20103;-67
2022/10/14 00:54:27;;;;;;;34.35;15.35;;;14.60;90.10;;;;;;5113954;28;20045;-67
2022/10/14 00:56:52;;;;;;;32.75;14.90;;;14.60;90.20;;;;;;5113976;28;20023;-67
2022/10/14 00:59:18;;;;;;;33.80;15.20;;;14.60;90.30;;;;;;5096282;28;20055;-67
2022/10/14 01:01:44;;;;;;;27.17;13.90;;;14.60;90.30;;;;;;5095990;28;20034;-67
2022/10/14 01:04:10;;;;;;;31.42;14.77;;;14.60;90.40;;;;;;5113847;28;20028;-67
2022/10/14 01:07:01;;;;;;;29.88;14.93;;;14.60;90.30;;;;;;5096016;28;20032;-67
2022/10/14 01:09:31;;;;;;;28.33;13.48;;;14.60;90.30;;;;;;5113769;28;20483;-67
2022/10/14 01:12:08;;;;;;;29.45;14.30;;;14.50;90.40;;;;;;5095826;28;20032;-67
2022/10/14 01:15:13;;;;;;;29.85;14.60;;;14.60;90.50;;;;;;5094997;28;20020;-67
2022/10/14 01:17:52;;;;;;;29.17;14.02;;;14.50;90.50;;;;;;5082409;28;20091;-67
2022/10/14 01:20:30;;;;;;;31.70;14.25;;;14.50;90.60;;;;;;5113693;28;20020;-67
2022/10/14 01:23:24;;;;;;;32.67;14.77;;;14.40;90.70;;;;;;5113811;28;20080;-67
2022/10/14 01:26:06;;;;;;;32.55;14.82;;;14.40;90.80;;;;;;5113606;28;20055;-67
2022/10/14 01:28:44;;;;;;;28.48;14.65;;;14.40;90.80;;;;;;5113704;28;20084;-67
2022/10/14 01:31:16;;;;;;;30.17;13.40;;;14.40;90.90;;;;;;5113597;28;20132;-67
2022/10/14 01:33:45;;;;;;;28.30;13.80;;;14.40;90.80;;;;;;5113491;28;20024;-67
2022/10/14 01:36:35;;;;;;;28.67;14.55;;;14.40;90.80;;;;;;5113475;28;20021;-68
2022/10/14 01:39:25;;;;;;;29.92;13.88;;;14.50;90.70;;;;;;5113506;28;20032;-67
2022/10/14 01:42:03;;;;;;;29.05;14.75;;;14.50;90.60;;;;;;5095522;28;20054;-68
2022/10/14 01:44:31;;;;;;;30.10;14.10;;;14.50;90.60;;;;;;5113452;28;20027;-67
2022/10/14 01:46:59;;;;;;;29.10;14.05;;;14.50;90.60;;;;;;5113382;28;20044;-67
2022/10/14 01:49:49;;;;;;;28.20;13.82;;;14.60;90.50;;;;;;5113356;28;20028;-67
2022/10/14 01:52:21;;;;;;;28.67;14.18;;;14.50;90.50;;;;;;5113385;28;20031;-67
2022/10/14 01:54:51;;;;;;;27.13;13.93;;;14.60;90.50;;;;;;5113284;28;20080;-67
2022/10/14 01:57:25;;;;;;;26.27;13.40;;;14.60;90.50;;;;;;5095288;28;20020;-68
2022/10/14 01:59:53;;;;;;;25.92;13.05;;;14.50;90.40;;;;;;5113319;28;20031;-67
2022/10/14 02:02:19;;;;;;;22.45;12.65;;;14.50;90.50;;;;;;5095312;28;20082;-67
2022/10/14 02:04:44;;;;;;;30.48;14.18;;;14.50;90.50;;;;;;5113177;28;20028;-67
2022/10/14 02:07:32;;;;;;;33.03;14.45;;;14.50;90.50;;;;;;5078581;28;20035;-68
2022/10/14 02:10:05;;;;;;;26.55;13.38;;;14.60;90.90;;;;;;5113361;28;20088;-67
2022/10/14 02:12:55;;;;;;;25.33;12.43;;;14.50;90.40;;;;;;5113210;28;20111;-68
2022/10/14 02:15:36;;;;;;;24.40;12.52;;;14.50;90.40;;;;;;5113295;28;20028;-67
2022/10/14 02:18:29;;;;;;;25.48;12.90;;;14.50;90.40;;;;;;5113177;28;20020;-67
2022/10/14 02:21:16;;;;;;;28.92;12.52;;;14.50;90.40;;;;;;5113148;28;20050;-67
2022/10/14 02:24:08;;;;;;;26.10;12.88;;;14.50;90.40;;;;;;5113252;28;20035;-68
2022/10/14 02:26:36;;;;;;;26.25;12.88;;;14.50;90.40;;;;;;5105039;28;20062;-68
2022/10/14 02:29:04;;;;;;;26.15;13.05;;;14.50;90.40;;;;;;5116712;28;20024;-68
2022/10/14 02:31:33;;;;;;;27.92;12.57;;;14.50;90.50;;;;;;5116754;28;20027;-67
2022/10/14 02:34:02;;;;;;;29.58;13.82;;;14.50;90.50;;;;;;5116746;28;20027;-67
2022/10/14 02:36:28;;;;;;;25.77;13.32;;;14.50;90.50;;;;;;5098682;28;20020;-68
2022/10/14 02:38:58;;;;;;;25.00;13.07;;;14.50;90.80;;;;;;5116767;28;20028;-67
2022/10/14 02:41:27;;;;;;;24.58;12.23;;;14.50;90.40;;;;;;5116577;28;20027;-67
2022/10/14 02:43:52;;;;;;;29.58;13.95;;;14.50;90.30;;;;;;5116511;28;20046;-68
2022/10/14 02:46:22;;;;;;;26.40;12.98;;;14.50;90.40;;;;;;5098569;28;20134;-67
2022/10/14 02:48:48;;;;;;;23.65;12.88;;;14.50;90.30;;;;;;5116400;28;20057;-67
2022/10/14 02:51:14;;;;;;;26.08;12.63;;;14.50;90.30;;;;;;5081700;28;20179;-68
2022/10/14 02:53:40;;;;;;;24.63;12.20;;;14.50;90.30;;;;;;5116276;28;20028;-68
2022/10/14 02:56:06;;;;;;;25.55;13.10;;;14.50;90.30;;;;;;5116206;28;20028;-68
2022/10/14 02:58:32;;;;;;;25.35;12.90;;;14.50;90.30;;;;;;5116068;28;20048;-68
2022/10/14 03:00:57;;;;;;;24.50;12.63;;;14.50;90.30;;;;;;5116185;28;20035;-68
2022/10/14 03:03:23;;;;;;;24.27;12.38;;;14.50;90.40;;;;;;5116267;28;20035;-68
2022/10/14 03:05:48;;;;;;;22.52;12.13;;;14.50;90.40;;;;;;5098302;28;20050;-67
2022/10/14 03:08:14;;;;;;;23.65;12.70;;;14.50;90.30;;;;;;5116047;28;20055;-68
2022/10/14 03:10:39;;;;;;;26.77;12.15;;;14.50;90.40;;;;;;5115959;28;20035;-67
2022/10/14 03:13:06;;;;;;;22.58;11.80;;;14.50;90.40;;;;;;5115881;28;20043;-68
2022/10/14 03:15:31;;;;;;;23.73;12.05;;;14.50;90.30;;;;;;5115898;28;20024;-68
2022/10/14 03:17:57;;;;;;;26.45;13.43;;;14.50;90.30;;;;;;5115862;28;20051;-68
2022/10/14 03:20:22;;;;;;;29.95;12.40;;;14.50;90.40;;;;;;5097954;28;20119;-67
2022/10/14 03:22:48;;;;;;;23.70;11.60;;;14.50;90.40;;;;;;5097933;28;20035;-68
2022/10/14 03:25:13;;;;;;;25.42;12.13;;;14.40;90.50;;;;;;5097905;28;20028;-68
2022/10/14 03:27:39;;;;;;;22.20;11.52;;;14.40;90.50;;;;;;5115670;28;20025;-68
2022/10/14 03:30:06;;;;;;;22.45;11.38;;;14.50;90.60;;;;;;5115539;28;20087;-68
2022/10/14 03:32:32;;;;;;;22.45;11.50;;;14.50;90.50;;;;;;5115567;28;20084;-67
2022/10/14 03:34:57;;;;;;;21.50;11.65;;;14.50;90.50;;;;;;5097839;28;20035;-67
2022/10/14 03:37:23;;;;;;;26.27;11.25;;;14.60;90.50;;;;;;5114675;28;20035;-68
2022/10/14 03:39:48;;;;;;;22.48;11.35;;;14.60;90.40;;;;;;5115452;28;20024;-67
2022/10/14 03:42:14;;;;;;;23.73;10.98;;;14.60;90.30;;;;;;5115375;28;20036;-68
2022/10/14 03:44:40;;;;;;;23.23;11.75;;;14.60;90.30;;;;;;5115452;28;20092;-67
2022/10/14 03:47:05;;;;;;;21.52;11.73;;;14.50;90.30;;;;;;5115303;28;20028;-68
2022/10/14 03:49:31;;;;;;;22.75;11.18;;;14.50;90.40;;;;;;5097416;28;20024;-68
2022/10/14 03:51:57;;;;;;;21.73;11.38;;;14.50;90.40;;;;;;5097341;28;20042;-67
2022/10/14 03:54:22;;;;;;;20.77;10.88;;;14.50;90.40;;;;;;5097336;28;20020;-68
2022/10/14 03:56:48;;;;;;;20.35;11.48;;;14.50;90.40;;;;;;5097113;28;20052;-68
2022/10/14 03:59:14;;;;;;;21.27;11.63;;;14.50;90.50;;;;;;5114915;28;20048;-67
2022/10/14 04:01:39;;;;;;;21.83;11.40;;;14.50;90.50;;;;;;5097129;28;20032;-67
2022/10/14 04:04:05;;;;;;;25.52;10.85;;;14.50;90.60;;;;;;5114922;28;20024;-68
2022/10/14 04:06:31;;;;;;;21.05;11.10;;;14.50;90.60;;;;;;5114900;28;20036;-67
2022/10/14 04:08:56;;;;;;;22.13;10.68;;;14.50;90.60;;;;;;5114869;28;20028;-67
2022/10/14 04:11:22;;;;;;;23.83;11.35;;;14.50;90.50;;;;;;5114787;28;20087;-68
2022/10/14 04:13:47;;;;;;;21.92;11.13;;;14.50;90.60;;;;;;5096856;28;20110;-68
2022/10/14 04:16:13;;;;;;;22.02;11.32;;;14.50;90.60;;;;;;5114728;28;20024;-68
2022/10/14 04:18:38;;;;;;;22.60;11.50;;;14.50;90.60;;;;;;5114656;28;20024;-68
2022/10/14 04:21:07;;;;;;;22.67;11.15;;;14.50;90.70;;;;;;5114616;28;20032;-68
2022/10/14 04:23:33;;;;;;;24.20;11.73;;;14.50;90.70;;;;;;5114596;28;20024;-68
2022/10/14 04:26:03;;;;;;;19.70;10.23;;;14.50;90.80;;;;;;5114526;28;20024;-68
2022/10/14 04:28:28;;;;;;;23.80;11.32;;;14.50;90.80;;;;;;5114422;28;20028;-67
2022/10/14 04:30:54;;;;;;;22.42;11.15;;;14.50;90.80;;;;;;5114442;28;20036;-68
2022/10/14 04:33:19;;;;;;;23.77;11.82;;;14.50;90.80;;;;;;5096443;28;20036;-68
2022/10/14 04:35:45;;;;;;;23.55;11.45;;;14.50;90.80;;;;;;5114503;28;20058;-67
2022/10/14 04:38:11;;;;;;;23.77;11.30;;;14.50;90.80;;;;;;5114284;28;20031;-67
2022/10/14 04:40:36;;;;;;;31.45;12.45;;;14.50;90.80;;;;;;5114258;28;20025;-68
2022/10/14 04:43:02;;;;;;;22.38;11.15;;;14.50;90.90;;;;;;5096327;28;20028;-67
2022/10/14 04:45:28;;;;;;;23.02;11.23;;;14.50;90.90;;;;;;5114181;28;20034;-68
2022/10/14 04:47:53;;;;;;;22.85;11.50;;;14.50;90.80;;;;;;5114123;28;20052;-68
2022/10/14 04:50:19;;;;;;;24.85;11.35;;;14.50;90.80;;;;;;5114024;28;20024;-68
2022/10/14 04:52:45;;;;;;;26.38;11.80;;;14.60;90.80;;;;;;5096228;28;20550;-68
2022/10/14 04:55:11;;;;;;;21.75;11.65;;;14.60;90.80;;;;;;5096279;28;20048;-67
2022/10/14 04:57:39;;;;;;;24.83;11.45;;;14.50;90.80;;;;;;5095999;28;20023;-68
2022/10/14 05:00:05;;;;;;;25.50;11.88;;;14.50;90.80;;;;;;5113850;28;20032;-68
2022/10/14 05:02:31;;;;;;;25.83;12.57;;;14.60;90.80;;;;;;5095993;28;20035;-68
2022/10/14 05:04:56;;;;;;;24.38;11.85;;;14.50;90.80;;;;;;5113864;28;20080;-67
2022/10/14 05:07:22;;;;;;;24.20;12.23;;;14.60;90.80;;;;;;5113964;28;20028;-68
2022/10/14 05:09:48;;;;;;;22.63;11.10;;;14.60;90.80;;;;;;5095986;28;20032;-67
2022/10/14 05:12:13;;;;;;;24.33;13.02;;;14.60;90.80;;;;;;5095966;28;20032;-67
2022/10/14 05:14:39;;;;;;;27.45;12.85;;;14.60;90.90;;;;;;5113648;28;20032;-67
2022/10/14 05:17:05;;;;;;;26.08;12.63;;;14.60;90.90;;;;;;5113851;28;20028;-68
2022/10/14 05:19:30;;;;;;;24.83;12.00;;;14.60;90.90;;;;;;5095981;28;20040;-68
2022/10/14 05:21:56;;;;;;;26.30;12.02;;;14.60;90.90;;;;;;5095988;28;20429;-68
2022/10/14 05:24:21;;;;;;;29.80;12.82;;;14.50;91.20;;;;;;5113572;28;20032;-67
2022/10/14 05:26:47;;;;;;;26.73;13.38;;;14.50;91.20;;;;;;5095697;28;20051;-67
2022/10/14 05:29:13;;;;;;;27.67;11.73;;;14.50;91.20;;;;;;5095847;28;20025;-67
2022/10/14 05:31:39;;;;;;;28.65;12.43;;;14.50;91.20;;;;;;5113545;28;20047;-68
2022/10/14 05:34:05;;;;;;;29.92;12.68;;;14.60;91.30;;;;;;5113544;28;20028;-68
2022/10/14 05:36:30;;;;;;;29.33;12.43;;;14.60;91.30;;;;;;5113455;28;20031;-67
2022/10/14 05:38:57;;;;;;;32.17;12.02;;;14.60;91.40;;;;;;5113459;28;20083;-68
2022/10/14 05:41:24;;;;;;;28.80;12.27;;;14.60;91.40;;;;;;5113458;28;20069;-67
2022/10/14 05:43:50;;;;;;;25.70;12.50;;;14.60;91.40;;;;;;5113377;28;20048;-68
2022/10/14 05:46:15;;;;;;;26.27;11.60;;;14.60;91.50;;;;;;5095523;28;20020;-68
2022/10/14 05:48:41;;;;;;;28.30;11.75;;;14.60;91.50;;;;;;5113129;28;20052;-68
2022/10/14 05:51:07;;;;;;;28.52;11.63;;;14.60;91.60;;;;;;5113298;28;20032;-68
2022/10/14 05:53:33;;;;;;;26.50;11.55;;;14.60;91.60;;;;;;5113263;28;20058;-68
2022/10/14 05:56:04;;;;;;;25.52;11.98;;;14.60;91.50;;;;;;5095444;28;20020;-68
2022/10/14 05:58:30;;;;;;;25.73;12.75;;;14.50;91.70;;;;;;5095208;28;20066;-68
2022/10/14 06:01:00;;;;;;;25.10;12.38;;;14.60;91.80;;;;;;5114909;28;20040;-68
2022/10/14 06:03:26;;;;;;;23.73;11.60;;;14.50;91.80;;;;;;5117301;28;20066;-68
2022/10/14 06:05:52;;;;;;;24.10;11.45;;;14.50;91.90;;;;;;5099276;28;20073;-68
2022/10/14 06:08:18;;;;;;;27.10;12.57;;;14.60;91.80;;;;;;5099408;28;20024;-68
2022/10/14 06:10:43;;;;;;;28.85;12.13;;;14.60;91.80;;;;;;5099416;28;20481;-68
2022/10/14 06:13:09;;;;;;;26.00;11.27;;;14.60;91.80;;;;;;5099198;28;20052;-68
2022/10/14 06:15:35;;;;;;;24.88;11.35;;;14.60;91.90;;;;;;5099427;28;20024;-68
2022/10/14 06:18:01;;;;;;;24.13;11.00;;;14.60;91.90;;;;;;5117029;28;20032;-68
2022/10/14 06:20:28;;;;;;;28.40;11.35;;;14.60;91.90;;;;;;5116943;28;20016;-68
2022/10/14 06:22:54;;;;;;;22.02;10.52;;;14.60;91.80;;;;;;5117097;28;20020;-68
2022/10/14 06:25:19;;;;;;;23.38;11.65;;;14.60;91.90;;;;;;5098878;28;20035;-68
2022/10/14 06:27:45;;;;;;;26.42;11.30;;;14.70;91.90;;;;;;5099034;28;20024;-68
2022/10/14 06:30:11;;;;;;;22.15;11.27;;;14.70;91.90;;;;;;5098889;28;20032;-68
2022/10/14 06:32:37;;;;;;;23.52;10.75;;;14.60;92.00;;;;;;5082206;28;20110;-68
2022/10/14 06:35:03;;;;;;;23.10;11.13;;;14.60;92.00;;;;;;5116626;28;20028;-68
2022/10/14 06:37:28;;;;;;;22.65;10.73;;;14.70;92.00;;;;;;5116670;28;20020;-68
2022/10/14 06:39:54;;;;;;;24.65;11.13;;;14.60;92.00;;;;;;5098788;28;20103;-68
2022/10/14 06:42:20;;;;;;;24.92;10.73;;;14.60;92.00;;;;;;5116562;28;20024;-68
2022/10/14 06:44:45;;;;;;;20.98;10.63;;;14.60;92.10;;;;;;5116499;28;20050;-68
2022/10/14 06:47:11;;;;;;;21.33;10.75;;;14.60;92.30;;;;;;5116496;28;20054;-68
2022/10/14 06:49:36;;;;;;;20.30;10.35;;;14.60;92.40;;;;;;5098638;28;20068;-68
2022/10/14 06:52:02;;;;;;;20.25;10.05;;;14.60;92.30;;;;;;5098611;28;20024;-68
2022/10/14 06:54:28;;;;;;;22.63;10.30;;;14.60;92.40;;;;;;5116261;28;20032;-68
2022/10/14 06:56:53;;;;;;;17.58;9.68;;;14.60;92.40;;;;;;5116302;28;20072;-68
2022/10/14 06:59:19;;;;;;;19.20;9.07;;;14.60;92.60;;;;;;5116097;28;20515;-68
2022/10/14 07:01:44;;;;;;;18.27;9.48;;;14.60;92.60;;;;;;5098263;28;20039;-68
2022/10/14 07:04:10;;;;;;;17.45;9.00;;;14.60;92.60;;;;;;5098320;28;20032;-68
2022/10/14 07:06:36;;;;;;;17.25;9.15;;;14.60;92.60;;;;;;5116100;28;20032;-68
2022/10/14 07:09:02;;;;;;;14.98;7.85;;;14.60;92.60;;;;;;5116044;28;20489;-68
2022/10/14 07:11:28;;;;;;;17.45;8.35;;;14.60;92.60;;;;;;5115496;28;20028;-68
2022/10/14 07:13:55;;;;;;;14.75;7.93;;;14.70;92.60;;;;;;5097524;28;20058;-69
2022/10/14 07:16:21;;;;;;;14.90;7.78;;;14.70;92.80;;;;;;5097985;28;20016;-68
2022/10/14 07:18:47;;;;;;;18.20;9.02;;;14.70;92.70;;;;;;5115852;28;20017;-68
2022/10/14 07:21:13;;;;;;;16.33;8.82;;;14.60;92.90;;;;;;5097985;28;20054;-68
2022/10/14 07:23:39;;;;;;;15.95;8.65;;;14.70;93.00;;;;;;5097973;28;20083;-68
2022/10/14 07:26:04;;;;;;;15.45;7.80;;;14.70;93.00;;;;;;5097893;28;20043;-68
2022/10/14 07:28:32;;;;;;;18.13;8.43;;;14.70;93.00;;;;;;5115604;28;20032;-68
2022/10/14 07:31:04;;;;;;;16.70;8.27;;;14.70;92.90;;;;;;5115630;28;20079;-68
2022/10/14 07:33:30;;;;;;;14.13;7.60;;;14.70;92.90;;;;;;5115532;28;20028;-68
2022/10/14 07:36:04;;;;;;;16.75;8.30;;;14.70;93.20;;;;;;5115560;28;20024;-67
2022/10/14 07:38:30;;;;;;;14.07;7.90;;;14.70;93.10;;;;;;5115521;28;20103;-68
2022/10/14 07:40:58;;;;;;;16.23;8.52;;;14.70;93.50;;;;;;5115432;28;20020;-68
2022/10/14 07:43:23;;;;;;;13.52;7.40;;;14.70;93.20;;;;;;5115401;28;20028;-68
2022/10/14 07:45:50;;;;;;;14.75;7.60;;;14.70;93.30;;;;;;5097407;28;20035;-68
2022/10/14 07:48:15;;;;;;;13.45;7.40;;;14.70;93.30;;;;;;5115268;28;20024;-68
2022/10/14 07:50:41;;;;;;;14.85;7.53;;;14.70;93.30;;;;;;5097432;28;20057;-68
2022/10/14 07:53:07;;;;;;;14.77;6.57;;;14.80;93.40;;;;;;5097280;28;20032;-68
2022/10/14 07:55:32;;;;;;;13.88;8.10;;;14.80;93.30;;;;;;5115115;28;20020;-68
2022/10/14 07:57:58;;;;;;;12.55;6.70;;;14.90;93.20;;;;;;5114933;28;20080;-68
2022/10/14 08:00:23;;;;;;;10.73;6.35;;;14.80;93.30;;;;;;5097416;28;20075;-68
2022/10/14 08:02:49;;;;;;;13.23;6.80;;;14.80;93.30;;;;;;5115020;28;20077;-67
2022/10/14 08:05:15;;;;;;;12.75;7.18;;;14.90;93.40;;;;;;5115122;28;20036;-68
2022/10/14 08:07:40;;;;;;;10.27;6.47;;;14.90;93.40;;;;;;5114903;28;20024;-68
2022/10/14 08:10:06;;;;;;;12.55;6.38;;;14.90;93.30;;;;;;5097144;28;20050;-68
2022/10/14 08:12:31;;;;;;;11.60;6.47;;;15.00;93.30;;;;;;5096946;28;20028;-68
2022/10/14 08:14:57;;;;;;;11.60;6.65;;;15.00;93.30;;;;;;5114708;28;20036;-68
2022/10/14 08:17:23;;;;;;;9.88;5.95;;;15.00;93.30;;;;;;5096875;28;20024;-68
2022/10/14 08:19:49;;;;;;;11.13;6.78;;;14.90;93.40;;;;;;5114681;28;20047;-68
2022/10/14 08:22:15;;;;;;;9.52;6.25;;;15.00;93.40;;;;;;5114752;28;20035;-68
2022/10/14 08:24:41;;;;;;;11.35;6.60;;;15.00;93.40;;;;;;5096282;28;20031;-68
2022/10/14 08:27:07;;;;;;;15.45;6.28;;;15.00;93.50;;;;;;5096631;28;20024;-68
2022/10/14 08:29:33;;;;;;;11.38;6.43;;;15.00;93.40;;;;;;5096543;28;20035;-68
2022/10/14 08:31:59;;;;;;;11.60;6.20;;;15.00;93.50;;;;;;5114299;28;20406;-68
2022/10/14 08:34:24;;;;;;;10.45;6.15;;;15.00;93.50;;;;;;5096387;28;20057;-68
2022/10/14 08:36:50;;;;;;;12.93;6.53;;;15.00;93.40;;;;;;5096403;28;20020;-68
2022/10/14 08:39:20;;;;;;;10.32;5.78;;;15.00;93.40;;;;;;5114269;28;20049;-67
2022/10/14 08:42:04;;;;;;;11.88;6.55;;;15.00;93.40;;;;;;5114357;28;20020;-68
2022/10/14 08:44:51;;;;;;;9.55;5.85;;;15.10;93.40;;;;;;5114391;28;20030;-67
2022/10/14 08:47:22;;;;;;;11.00;5.85;;;15.10;93.50;;;;;;5114048;28;20016;-67
2022/10/14 08:50:06;;;;;;;8.95;5.80;;;15.10;93.40;;;;;;5114130;28;20058;-67
2022/10/14 08:52:44;;;;;;;11.50;6.43;;;15.10;94.00;;;;;;5096217;28;20028;-67
2022/10/14 08:55:25;;;;;;;10.70;6.00;;;15.10;93.60;;;;;;5095991;28;20020;-67
2022/10/14 08:57:58;;;;;;;11.25;5.95;;;15.20;93.50;;;;;;5095833;28;20043;-67
2022/10/14 09:00:25;;;;;;;10.18;6.50;;;15.20;93.50;;;;;;5113760;28;20028;-68
2022/10/14 09:02:51;;;;;;;9.90;5.75;;;15.20;93.60;;;;;;5113763;28;20027;-68
2022/10/14 09:05:20;;;;;;;11.02;6.13;;;15.30;93.50;;;;;;5113861;28;20020;-67
2022/10/14 09:07:48;;;;;;;10.50;6.40;;;15.30;93.50;;;;;;5113839;28;20012;-68
2022/10/14 09:10:29;;;;;;;9.60;6.13;;;15.30;93.40;;;;;;5113823;28;20024;-67
2022/10/14 09:12:57;;;;;;;9.52;5.60;;;15.40;93.20;;;;;;5113761;28;20032;-68
2022/10/14 09:15:39;;;;;;;10.70;6.40;;;15.40;93.60;;;;;;5096278;28;20166;-67
2022/10/14 09:18:28;;;;;;;9.40;6.00;;;15.40;93.30;;;;;;5113885;28;20020;-68
2022/10/14 09:20:55;;;;;;;10.50;6.10;;;15.40;93.40;;;;;;5113691;28;20028;-67
2022/10/14 09:23:22;;;;;;;10.80;5.97;;;15.40;93.40;;;;;;5095839;28;20020;-67
2022/10/14 09:25:58;;;;;;;11.18;6.50;;;15.50;93.40;;;;;;5113612;28;20028;-67
2022/10/14 09:28:37;;;;;;;10.73;6.18;;;15.50;93.20;;;;;;5095686;28;20028;-67
2022/10/14 09:31:04;;;;;;;9.35;6.07;;;15.60;93.20;;;;;;5113740;28;20016;-67
2022/10/14 09:33:33;;;;;;;10.50;6.47;;;15.60;93.30;;;;;;5113608;28;20024;-67
2022/10/14 09:35:59;;;;;;;10.10;6.00;;;15.60;93.20;;;;;;5095314;28;20098;-67
2022/10/14 09:38:25;;;;;;;10.77;6.40;;;15.60;93.20;;;;;;5113487;28;20074;-67
2022/10/14 09:40:57;;;;;;;13.00;6.28;;;15.60;93.60;;;;;;5113499;28;20031;-67
2022/10/14 09:43:26;;;;;;;9.48;5.78;;;15.60;93.20;;;;;;5113495;28;20028;-67
2022/10/14 09:46:06;;;;;;;8.30;5.40;;;15.70;93.10;;;;;;5113273;28;20054;-67
2022/10/14 09:48:51;;;;;;;8.82;5.60;;;15.70;93.00;;;;;;5095510;28;20028;-67
2022/10/14 09:51:25;;;;;;;9.52;5.57;;;15.70;92.80;;;;;;5113402;28;20024;-67
2022/10/14 09:53:53;;;;;;;10.40;5.60;;;15.60;92.90;;;;;;5113278;28;20103;-67
2022/10/14 09:56:35;;;;;;;9.88;5.75;;;15.60;93.00;;;;;;5113339;28;20024;-67
2022/10/14 09:59:03;;;;;;;9.37;5.10;;;15.70;92.90;;;;;;5113387;28;20383;-67
2022/10/14 10:01:39;;;;;;;8.48;5.13;;;15.70;93.30;;;;;;5113267;28;20076;-67
2022/10/14 10:04:30;;;;;;;9.68;5.25;;;15.70;92.90;;;;;;5095377;28;20040;-67
2022/10/14 10:06:58;;;;;;;9.95;5.97;;;15.80;92.90;;;;;;5113239;28;20024;-67
2022/10/14 10:09:24;;;;;;;11.20;5.95;;;15.80;92.80;;;;;;5095395;28;20043;-67
2022/10/14 10:11:50;;;;;;;9.68;5.40;;;15.80;92.80;;;;;;5095332;28;20104;-67
2022/10/14 10:14:23;;;;;;;10.50;5.03;;;15.80;92.50;;;;;;5113059;28;20032;-67
2022/10/14 10:17:09;;;;;;;8.80;5.22;;;15.80;92.80;;;;;;5113166;28;20024;-67
2022/10/14 10:19:42;;;;;;;9.00;5.85;;;15.80;92.80;;;;;;5113132;28;20043;-67
2022/10/14 10:22:30;;;;;;;9.95;5.25;;;15.80;92.70;;;;;;5113128;28;20025;-67
2022/10/14 10:25:05;;;;;;;9.63;5.80;;;15.80;92.70;;;;;;5095166;28;20053;-67
2022/10/14 10:27:35;;;;;;;7.35;5.07;;;15.90;92.80;;;;;;5113034;28;20027;-67
2022/10/14 10:30:39;;;;;;;7.70;5.35;;;15.90;92.70;;;;;;5112905;28;20027;-67
2022/10/14 10:33:23;;;;;;;8.63;5.03;;;15.80;92.90;;;;;;5112969;28;20031;-67
2022/10/14 10:36:14;;;;;;;11.05;5.72;;;15.90;92.70;;;;;;5113132;28;20024;-67
2022/10/14 10:38:55;;;;;;;8.43;5.32;;;15.90;92.80;;;;;;5112957;28;20020;-67
2022/10/14 10:41:45;;;;;;;7.77;5.00;;;15.80;92.90;;;;;;5112950;28;20024;-67
2022/10/14 10:44:34;;;;;;;8.55;5.78;;;15.80;93.00;;;;;;5104812;28;20040;-67
2022/10/14 10:47:15;;;;;;;9.40;5.65;;;15.80;93.10;;;;;;5114426;28;20079;-67
2022/10/14 10:49:54;;;;;;;9.98;5.88;;;15.80;93.10;;;;;;5116504;28;20024;-67
2022/10/14 10:52:39;;;;;;;10.43;6.50;;;15.90;93.10;;;;;;5116445;28;20020;-67
2022/10/14 10:55:40;;;;;;;10.45;6.30;;;15.90;93.20;;;;;;5116496;28;20028;-67
2022/10/14 10:58:39;;;;;;;12.55;5.78;;;15.90;93.50;;;;;;5116177;28;20036;-67
2022/10/14 11:01:24;;;;;;;10.60;6.65;;;15.90;93.10;;;;;;5116425;28;20048;-67
2022/10/14 11:04:24;;;;;;;10.15;5.70;;;15.90;93.40;;;;;;5098286;28;20028;-67
2022/10/14 11:13:33;;;;;;;11.75;6.10;;;15.80;93.40;;;;;;5115992;28;20039;-67
2022/10/14 11:16:25;;;;;;;8.35;5.70;;;15.80;93.40;;;;;;5116120;28;20027;-67
2022/10/14 11:19:13;;;;;;;10.45;5.93;;;15.80;93.50;;;;;;5115937;28;20020;-68
2022/10/14 11:22:04;;;;;;;10.50;6.03;;;15.80;94.00;;;;;;5098000;28;20031;-68
2022/10/14 11:24:41;;;;;;;10.15;5.53;;;15.80;93.60;;;;;;5115308;28;20040;-68
2022/10/14 11:27:14;;;;;;;8.35;5.72;;;15.80;93.70;;;;;;5115763;28;20115;-67
2022/10/14 11:29:41;;;;;;;9.65;5.88;;;15.80;93.90;;;;;;5097731;28;20028;-67
2022/10/14 11:32:28;;;;;;;9.80;5.35;;;15.80;94.00;;;;;;5115649;28;20040;-68
2022/10/14 11:35:23;;;;;;;12.68;5.03;;;15.80;94.00;;;;;;5115544;28;20052;-68
2022/10/14 11:37:55;;;;;;;7.78;4.68;;;15.80;94.00;;;;;;5088224;28;20111;-68
2022/10/14 11:40:27;;;;;;;7.78;4.72;;;15.80;94.10;;;;;;5115525;28;20054;-68
2022/10/14 11:43:21;;;;;;;6.95;4.80;;;15.80;94.00;;;;;;5115456;28;20023;-68
2022/10/14 11:45:59;;;;;;;7.10;4.25;;;15.90;94.10;;;;;;5115415;28;20031;-68
2022/10/14 11:48:41;;;;;;;7.55;4.32;;;15.90;94.00;;;;;;5115361;28;20079;-68
2022/10/14 11:51:29;;;;;;;6.43;4.30;;;15.90;94.00;;;;;;5115341;28;20035;-68
2022/10/14 11:53:57;;;;;;;12.43;5.57;;;15.90;94.30;;;;;;5115181;28;20034;-68
2022/10/14 11:56:30;;;;;;;8.15;5.25;;;15.90;94.40;;;;;;5115151;28;20035;-68
2022/10/14 11:59:07;;;;;;;8.55;5.00;;;15.90;94.30;;;;;;5114340;28;20044;-67
2022/10/14 12:01:39;;;;;;;6.55;3.92;;;15.90;94.30;;;;;;5115155;28;20043;-68
2022/10/14 12:04:19;;;;;;;5.70;4.00;;;15.90;94.30;;;;;;5097249;28;20051;-68
2022/10/14 12:06:57;;;;;;;7.72;4.07;;;16.00;94.20;;;;;;5097035;28;20031;-68
2022/10/14 12:09:41;;;;;;;6.13;4.15;;;16.00;94.20;;;;;;5097076;28;20035;-68
2022/10/14 12:12:11;;;;;;;5.75;3.92;;;16.00;94.20;;;;;;5114888;28;20027;-67
2022/10/14 12:15:06;;;;;;;4.85;3.47;;;16.00;94.20;;;;;;5096831;28;20083;-67
2022/10/14 12:18:07;;;;;;;5.25;3.47;;;16.00;94.30;;;;;;5091324;28;20120;-68
2022/10/14 12:20:35;;;;;;;6.30;3.78;;;16.00;94.40;;;;;;5114921;28;20485;-68
2022/10/14 12:23:05;;;;;;;6.97;4.40;;;16.00;94.40;;;;;;5096657;28;20023;-68
2022/10/14 12:25:40;;;;;;;7.53;4.40;;;16.00;94.30;;;;;;5114653;28;20027;-68
2022/10/14 12:28:08;;;;;;;7.97;4.60;;;16.10;94.50;;;;;;5114572;28;20020;-68
2022/10/14 12:30:40;;;;;;;7.93;4.95;;;16.10;94.20;;;;;;5114432;28;20016;-68
2022/10/14 12:33:11;;;;;;;16.30;6.75;;;16.00;94.20;;;;;;5114406;28;20483;-68
2022/10/14 12:35:51;;;;;;;11.05;5.85;;;16.00;94.30;;;;;;5114427;28;20020;-68
2022/10/14 12:38:18;;;;;;;7.63;4.75;;;16.00;94.30;;;;;;5114360;28;20025;-68
2022/10/14 12:40:44;;;;;;;10.30;5.93;;;16.00;94.30;;;;;;5096335;28;20039;-68
2022/10/14 12:43:22;;;;;;;11.30;5.55;;;15.90;94.30;;;;;;5096423;28;20093;-67
2022/10/14 12:45:57;;;;;;;11.27;5.63;;;15.90;94.40;;;;;;5114257;28;20016;-68
2022/10/14 12:48:26;;;;;;;9.63;5.60;;;16.00;94.40;;;;;;5114203;28;20390;-68
2022/10/14 12:51:24;;;;;;;9.48;5.85;;;15.90;94.30;;;;;;5114158;28;20023;-68
2022/10/14 12:54:04;;;;;;;9.52;5.90;;;16.00;94.30;;;;;;5063056;28;20028;-68
2022/10/14 12:56:41;;;;;;;8.68;5.75;;;16.00;94.30;;;;;;5114131;28;20487;-68
2022/10/14 12:59:16;;;;;;;9.13;5.45;;;16.00;94.70;;;;;;5113858;28;20092;-68